Airfield :
LOGIN :

Register | Disclaimer

   EN    FR    IT 

 










Legend :    VFR   Marginal VFR   IFR   Intensive IFR   Very Intensive IFR
Visi :
Ceiling :
>= 8 km
>= 3000ft
5 to 8 km
1000 to 3000 ft
1500m to 5 km
500 to 1000 ft
800 to 1500m
200 to 500 ft
< 800m
< 200 ft
Symbols :   Thunderstorms  Fog  Heavy snow  Heavy precipitations  Wind > 20 kt
SIGMETs :     Misc.  Thunderstorms  Icing  Turbulence  Mountain Waves  Volcanic Ashes






- Airport Elevation : 12 ft
- IATA code : NCE


LFMN - Nice

CURRENT METAR :
  • 282030Z AUTO 32003KT 280V340 CAVOK 19/15 Q1020 NOSIG

EXPIRED METARs :
  • 282000Z AUTO 33005KT 9999 FEW054 OVC130 19/15 Q1020 NOSIG
  • 281930Z AUTO 31005KT 290V350 CAVOK 18/15 Q1020 NOSIG
  • 281900Z AUTO 04004KT CAVOK 19/15 Q1020 BECMG 33010KT
  • 281830Z AUTO 35005KT 320V020 9999 FEW033 SCT110 BKN150 19/16 Q1020 NOSIG
  • 281800Z AUTO VRB02KT 9999 FEW039/// OVC100/// ///CB 20/16 Q1021 TEMPO SHRA BECMG NSC
  • 281730Z AUTO 00000KT 9999 FEW041/// BKN120/// OVC150/// ///CB 19/15 Q1021 TEMPO SHRA BECMG 33010KT NSC

TAF TAF LFMN
Valid from the 28 at 15:00 until the 29 at 21:00 UTC


281400Z 2815/2921 16006KT 9999 FEW060
TEMPO 2815/2819 SHRA SCT060TCU
PROB30
TEMPO 2815/2818 33015G25KT TSRA FEW060CB
BECMG 2819/2821 33010KT CAVOK
TEMPO 2900/2907 08015KT
PROB30
TEMPO 2900/2907 BKN012
BECMG 2907/2910 10015KT SCT040
PROB40
TEMPO 2910/2914 11020G30KT
PROB30
TEMPO 2910/2917 SHRA BKN030
BECMG 2917/2919 33010KT CAVOK
ATIS : +33 4 93 17 21 16



MET'MAP, your aeronautical weather chart ! - Copyright ORBIFLY December 2007 - Disclaimer

ORBIFLY MET'MAP TEAM :

Programming & Development : Alexandra Zaïnal
Concept & original design : Baudouin d'Aumeries
Assistance for programming : Marc-Olivier Méhu
Technical & hardware support : Manuel Goepfert

Contact : metmap@orbifly.com




SOURCES & CREDITS :

   NOAA